KZZV/ZZV METAR and TAF weather

Enter ICAO airport designator
Station Type Date Time Source
KZZV METAR 2020/01/23 08:53 UTC NOAA

KZZV 230853Z AUTO 00000KT 10SM CLR M04/M08 A3024 RMK AO2 SLP247 T10391078 58011


Station Type Date Time Source
KZZV Decoded METAR 2020/01/23 08:53 UTC NOAA

ZANESVILLE MUNICIPAL AIRPORT , OH, United States (KZZV) 39-57N 81-54W 268M
Jan 23, 2020 - 03:53 AM EST / 2020.01.23 0853 UTC
Wind: Calm:0
Visibility: 10 mile(s):0
Sky conditions: clear
Temperature: 25.0 F (-3.9 C)
Dew Point: 18.0 F (-7.8 C)
Relative Humidity: 74%
Pressure (altimeter): 30.24 in. Hg (1024 hPa)
Pressure tendency: 0.03 inches (1.1 hPa) lower than three hours ago
ob: KZZV 230853Z AUTO 00000KT 10SM CLR M04/M08 A3024 RMK AO2 SLP247 T10391078 58011
cycle: 9

Station Type Date Time Source
KZZV TAF 2020/01/23 06:22 UTC NOAA

TAF KZZV 230520Z 2306/2406 00000KT P6SM BKN200
FM231800 17005KT P6SM BKN100

Example: see airport list